sensor_id;sensor_type;location;lat;lon;timestamp;P1;durP1;ratioP1;P2;durP2;ratioP2
31596;SDS011;18201;50.978;7.034;2023-04-24T00:00:14;1.58;;;0.93;;
31596;SDS011;18201;50.978;7.034;2023-04-24T00:00:47;0.80;;;0.80;;
31596;SDS011;18201;50.978;7.034;2023-04-24T00:01:18;2.13;;;0.70;;
31596;SDS011;18201;50.978;7.034;2023-04-24T00:01:50;2.13;;;0.70;;
31596;SDS011;18201;50.978;7.034;2023-04-24T00:02:23;1.00;;;0.85;;
31596;SDS011;18201;50.978;7.034;2023-04-24T00:02:55;1.02;;;0.95;;
31596;SDS011;18201;50.978;7.034;2023-04-24T00:03:27;1.40;;;1.10;;
31596;SDS011;18201;50.978;7.034;2023-04-24T00:03:59;2.30;;;0.68;;
31596;SDS011;18201;50.978;7.034;2023-04-24T00:04:31;1.48;;;1.08;;
31596;SDS011;18201;50.978;7.034;2023-04-24T00:05:02;1.77;;;1.02;;
31596;SDS011;18201;50.978;7.034;2023-04-24T00:05:34;1.48;;;0.90;;
31596;SDS011;18201;50.978;7.034;2023-04-24T00:06:06;1.25;;;0.93;;
31596;SDS011;18201;50.978;7.034;2023-04-24T00:06:38;1.10;;;0.88;;
31596;SDS011;18201;50.978;7.034;2023-04-24T00:07:12;1.27;;;1.10;;
31596;SDS011;18201;50.978;7.034;2023-04-24T00:07:46;1.40;;;0.98;;
31596;SDS011;18201;50.978;7.034;2023-04-24T00:08:17;1.02;;;0.80;;
31596;SDS011;18201;50.978;7.034;2023-04-24T00:08:49;1.52;;;1.13;;
31596;SDS011;18201;50.978;7.034;2023-04-24T00:09:20;1.10;;;1.00;;
31596;SDS011;18201;50.978;7.034;2023-04-24T00:09:51;2.13;;;0.80;;
31596;SDS011;18201;50.978;7.034;2023-04-24T00:10:22;1.77;;;0.90;;
31596;SDS011;18201;50.978;7.034;2023-04-24T00:10:54;1.10;;;1.00;;
31596;SDS011;18201;50.978;7.034;2023-04-24T00:11:25;1.02;;;0.90;;
31596;SDS011;18201;50.978;7.034;2023-04-24T00:11:56;1.55;;;1.10;;
31596;SDS011;18201;50.978;7.034;2023-04-24T00:12:28;2.65;;;0.95;;
31596;SDS011;18201;50.978;7.034;2023-04-24T00:12:59;2.30;;;1.25;;
31596;SDS011;18201;50.978;7.034;2023-04-24T00:13:30;1.83;;;1.10;;
31596;SDS011;18201;50.978;7.034;2023-04-24T00:14:01;1.15;;;1.05;;
31596;SDS011;18201;50.978;7.034;2023-04-24T00:14:35;1.05;;;0.90;;
31596;SDS011;18201;50.978;7.034;2023-04-24T00:15:08;1.35;;;1.25;;
31596;SDS011;18201;50.978;7.034;2023-04-24T00:15:40;0.80;;;0.80;;
31596;SDS011;18201;50.978;7.034;2023-04-24T00:16:12;0.95;;;0.93;;
31596;SDS011;18201;50.978;7.034;2023-04-24T00:16:43;1.25;;;1.10;;
31596;SDS011;18201;50.978;7.034;2023-04-24T00:17:14;1.30;;;1.20;;
31596;SDS011;18201;50.978;7.034;2023-04-24T00:17:45;1.88;;;1.13;;
31596;SDS011;18201;50.978;7.034;2023-04-24T00:18:16;1.77;;;1.20;;
31596;SDS011;18201;50.978;7.034;2023-04-24T00:18:47;0.90;;;0.90;;
31596;SDS011;18201;50.978;7.034;2023-04-24T00:19:19;2.47;;;1.10;;
31596;SDS011;18201;50.978;7.034;2023-04-24T00:19:51;2.80;;;1.35;;
31596;SDS011;18201;50.978;7.034;2023-04-24T00:20:28;0.80;;;0.80;;
31596;SDS011;18201;50.978;7.034;2023-04-24T00:21:02;2.55;;;1.08;;
31596;SDS011;18201;50.978;7.034;2023-04-24T00:21:33;1.42;;;1.00;;
31596;SDS011;18201;50.978;7.034;2023-04-24T00:22:04;1.20;;;0.90;;
31596;SDS011;18201;50.978;7.034;2023-04-24T00:22:36;2.85;;;1.00;;
31596;SDS011;18201;50.978;7.034;2023-04-24T00:23:07;1.00;;;0.90;;
31596;SDS011;18201;50.978;7.034;2023-04-24T00:23:38;1.80;;;1.20;;
31596;SDS011;18201;50.978;7.034;2023-04-24T00:24:10;1.58;;;1.38;;
31596;SDS011;18201;50.978;7.034;2023-04-24T00:24:41;2.67;;;0.90;;
31596;SDS011;18201;50.978;7.034;2023-04-24T00:25:12;0.98;;;0.98;;
31596;SDS011;18201;50.978;7.034;2023-04-24T00:25:43;0.85;;;0.85;;
31596;SDS011;18201;50.978;7.034;2023-04-24T00:26:14;1.10;;;1.05;;
31596;SDS011;18201;50.978;7.034;2023-04-24T00:26:45;0.90;;;0.90;;
31596;SDS011;18201;50.978;7.034;2023-04-24T00:27:16;1.27;;;1.15;;
31596;SDS011;18201;50.978;7.034;2023-04-24T00:27:48;1.27;;;1.17;;
31596;SDS011;18201;50.978;7.034;2023-04-24T00:28:19;1.02;;;0.85;;
31596;SDS011;18201;50.978;7.034;2023-04-24T00:28:50;1.90;;;1.35;;
31596;SDS011;18201;50.978;7.034;2023-04-24T00:29:22;0.90;;;0.90;;
31596;SDS011;18201;50.978;7.034;2023-04-24T00:29:52;2.00;;;1.20;;
31596;SDS011;18201;50.978;7.034;2023-04-24T00:30:25;1.05;;;1.05;;
31596;SDS011;18201;50.978;7.034;2023-04-24T00:30:56;1.63;;;1.27;;
31596;SDS011;18201;50.978;7.034;2023-04-24T00:31:27;0.95;;;0.90;;
31596;SDS011;18201;50.978;7.034;2023-04-24T00:31:58;1.17;;;1.05;;
31596;SDS011;18201;50.978;7.034;2023-04-24T00:32:30;1.30;;;1.00;;
31596;SDS011;18201;50.978;7.034;2023-04-24T00:33:01;1.15;;;0.90;;
31596;SDS011;18201;50.978;7.034;2023-04-24T00:33:32;1.35;;;1.10;;
31596;SDS011;18201;50.978;7.034;2023-04-24T00:34:04;1.45;;;1.00;;
31596;SDS011;18201;50.978;7.034;2023-04-24T00:34:35;1.10;;;1.00;;
31596;SDS011;18201;50.978;7.034;2023-04-24T00:35:06;1.95;;;1.15;;
31596;SDS011;18201;50.978;7.034;2023-04-24T00:35:38;2.65;;;1.20;;
31596;SDS011;18201;50.978;7.034;2023-04-24T00:36:10;1.50;;;1.15;;
31596;SDS011;18201;50.978;7.034;2023-04-24T00:36:40;1.65;;;1.20;;
31596;SDS011;18201;50.978;7.034;2023-04-24T00:37:12;2.28;;;1.00;;
31596;SDS011;18201;50.978;7.034;2023-04-24T00:37:43;1.10;;;1.02;;
31596;SDS011;18201;50.978;7.034;2023-04-24T00:38:14;1.40;;;1.30;;
31596;SDS011;18201;50.978;7.034;2023-04-24T00:38:46;1.42;;;1.20;;
31596;SDS011;18201;50.978;7.034;2023-04-24T00:39:17;2.53;;;1.38;;
31596;SDS011;18201;50.978;7.034;2023-04-24T00:39:48;1.30;;;1.20;;
31596;SDS011;18201;50.978;7.034;2023-04-24T00:40:19;1.13;;;0.95;;
31596;SDS011;18201;50.978;7.034;2023-04-24T00:40:51;1.77;;;1.27;;
31596;SDS011;18201;50.978;7.034;2023-04-24T00:41:21;1.75;;;1.27;;
31596;SDS011;18201;50.978;7.034;2023-04-24T00:41:53;1.75;;;1.20;;
31596;SDS011;18201;50.978;7.034;2023-04-24T00:42:24;3.45;;;1.75;;
31596;SDS011;18201;50.978;7.034;2023-04-24T00:42:56;1.50;;;1.20;;
31596;SDS011;18201;50.978;7.034;2023-04-24T00:43:27;1.95;;;1.40;;
31596;SDS011;18201;50.978;7.034;2023-04-24T00:43:59;0.95;;;0.93;;
31596;SDS011;18201;50.978;7.034;2023-04-24T00:44:31;2.55;;;1.20;;
31596;SDS011;18201;50.978;7.034;2023-04-24T00:45:03;1.55;;;1.20;;
31596;SDS011;18201;50.978;7.034;2023-04-24T00:45:36;1.52;;;1.23;;
31596;SDS011;18201;50.978;7.034;2023-04-24T00:46:08;1.05;;;0.98;;
31596;SDS011;18201;50.978;7.034;2023-04-24T00:46:39;1.20;;;1.10;;
31596;SDS011;18201;50.978;7.034;2023-04-24T00:47:11;2.30;;;1.08;;
31596;SDS011;18201;50.978;7.034;2023-04-24T00:47:42;1.58;;;1.27;;
31596;SDS011;18201;50.978;7.034;2023-04-24T00:48:14;1.33;;;1.00;;
31596;SDS011;18201;50.978;7.034;2023-04-24T00:48:46;1.98;;;1.25;;
31596;SDS011;18201;50.978;7.034;2023-04-24T00:49:17;1.10;;;1.00;;
31596;SDS011;18201;50.978;7.034;2023-04-24T00:49:49;0.80;;;0.75;;
31596;SDS011;18201;50.978;7.034;2023-04-24T00:50:20;2.55;;;1.90;;
31596;SDS011;18201;50.978;7.034;2023-04-24T00:50:51;1.92;;;1.00;;
31596;SDS011;18201;50.978;7.034;2023-04-24T00:51:23;2.60;;;1.15;;
31596;SDS011;18201;50.978;7.034;2023-04-24T00:51:54;1.02;;;1.00;;
31596;SDS011;18201;50.978;7.034;2023-04-24T00:52:26;1.88;;;1.20;;
31596;SDS011;18201;50.978;7.034;2023-04-24T00:53:01;4.10;;;1.20;;
31596;SDS011;18201;50.978;7.034;2023-04-24T00:53:31;1.15;;;1.05;;
31596;SDS011;18201;50.978;7.034;2023-04-24T00:54:02;1.20;;;1.10;;
31596;SDS011;18201;50.978;7.034;2023-04-24T00:54:35;1.10;;;1.00;;
31596;SDS011;18201;50.978;7.034;2023-04-24T00:55:06;1.10;;;0.98;;
31596;SDS011;18201;50.978;7.034;2023-04-24T00:55:38;1.95;;;1.33;;
31596;SDS011;18201;50.978;7.034;2023-04-24T00:56:09;1.50;;;0.90;;
31596;SDS011;18201;50.978;7.034;2023-04-24T00:56:41;1.30;;;1.20;;
31596;SDS011;18201;50.978;7.034;2023-04-24T00:57:14;2.42;;;1.08;;
31596;SDS011;18201;50.978;7.034;2023-04-24T00:57:45;2.40;;;1.17;;
31596;SDS011;18201;50.978;7.034;2023-04-24T00:58:18;2.20;;;1.35;;
31596;SDS011;18201;50.978;7.034;2023-04-24T00:58:49;3.20;;;1.23;;
31596;SDS011;18201;50.978;7.034;2023-04-24T00:59:22;1.80;;;0.95;;
31596;SDS011;18201;50.978;7.034;2023-04-24T00:59:52;3.03;;;1.10;;
31596;SDS011;18201;50.978;7.034;2023-04-24T01:00:24;1.52;;;1.42;;
31596;SDS011;18201;50.978;7.034;2023-04-24T01:01:51;1.75;;;1.30;;
31596;SDS011;18201;50.978;7.034;2023-04-24T01:02:23;1.48;;;1.20;;
31596;SDS011;18201;50.978;7.034;2023-04-24T01:02:56;2.45;;;1.30;;
31596;SDS011;18201;50.978;7.034;2023-04-24T01:03:29;2.97;;;1.38;;
31596;SDS011;18201;50.978;7.034;2023-04-24T01:04:04;1.48;;;1.38;;
31596;SDS011;18201;50.978;7.034;2023-04-24T01:04:37;3.42;;;1.15;;
31596;SDS011;18201;50.978;7.034;2023-04-24T01:05:08;1.77;;;1.67;;
31596;SDS011;18201;50.978;7.034;2023-04-24T01:05:41;5.28;;;1.10;;
31596;SDS011;18201;50.978;7.034;2023-04-24T01:06:12;2.85;;;1.48;;
31596;SDS011;18201;50.978;7.034;2023-04-24T01:06:44;1.38;;;1.27;;
31596;SDS011;18201;50.978;7.034;2023-04-24T01:07:17;3.08;;;1.52;;
31596;SDS011;18201;50.978;7.034;2023-04-24T01:07:50;1.98;;;1.30;;
31596;SDS011;18201;50.978;7.034;2023-04-24T01:08:22;2.10;;;1.65;;
31596;SDS011;18201;50.978;7.034;2023-04-24T01:08:54;2.50;;;1.30;;
31596;SDS011;18201;50.978;7.034;2023-04-24T01:09:25;2.08;;;1.20;;
31596;SDS011;18201;50.978;7.034;2023-04-24T01:09:57;3.45;;;1.17;;
31596;SDS011;18201;50.978;7.034;2023-04-24T01:10:29;3.08;;;1.45;;
31596;SDS011;18201;50.978;7.034;2023-04-24T01:11:01;1.88;;;1.38;;
31596;SDS011;18201;50.978;7.034;2023-04-24T01:11:34;1.92;;;1.27;;
31596;SDS011;18201;50.978;7.034;2023-04-24T01:12:06;1.52;;;1.23;;
31596;SDS011;18201;50.978;7.034;2023-04-24T01:12:37;2.00;;;1.20;;
31596;SDS011;18201;50.978;7.034;2023-04-24T01:13:08;1.95;;;1.50;;
31596;SDS011;18201;50.978;7.034;2023-04-24T01:13:40;1.77;;;1.35;;
31596;SDS011;18201;50.978;7.034;2023-04-24T01:14:11;1.77;;;1.40;;
31596;SDS011;18201;50.978;7.034;2023-04-24T01:14:42;1.77;;;1.33;;
31596;SDS011;18201;50.978;7.034;2023-04-24T01:15:14;2.28;;;1.38;;
31596;SDS011;18201;50.978;7.034;2023-04-24T01:15:45;1.23;;;1.10;;
31596;SDS011;18201;50.978;7.034;2023-04-24T01:16:16;1.50;;;1.40;;
31596;SDS011;18201;50.978;7.034;2023-04-24T01:16:52;3.08;;;1.33;;
31596;SDS011;18201;50.978;7.034;2023-04-24T01:17:22;1.30;;;1.20;;
31596;SDS011;18201;50.978;7.034;2023-04-24T01:17:53;1.50;;;1.40;;
31596;SDS011;18201;50.978;7.034;2023-04-24T01:18:26;4.15;;;1.58;;
31596;SDS011;18201;50.978;7.034;2023-04-24T01:18:57;4.55;;;1.33;;
31596;SDS011;18201;50.978;7.034;2023-04-24T01:19:28;1.90;;;1.35;;
31596;SDS011;18201;50.978;7.034;2023-04-24T01:20:00;1.45;;;1.35;;
31596;SDS011;18201;50.978;7.034;2023-04-24T01:20:34;3.58;;;1.45;;
31596;SDS011;18201;50.978;7.034;2023-04-24T01:21:09;2.95;;;1.90;;
31596;SDS011;18201;50.978;7.034;2023-04-24T01:21:46;2.95;;;1.60;;
31596;SDS011;18201;50.978;7.034;2023-04-24T01:22:21;2.08;;;1.27;;
31596;SDS011;18201;50.978;7.034;2023-04-24T01:22:53;1.85;;;1.45;;
31596;SDS011;18201;50.978;7.034;2023-04-24T01:23:26;2.13;;;1.50;;
31596;SDS011;18201;50.978;7.034;2023-04-24T01:23:57;2.65;;;1.80;;
31596;SDS011;18201;50.978;7.034;2023-04-24T01:24:28;2.15;;;1.50;;
31596;SDS011;18201;50.978;7.034;2023-04-24T01:25:00;1.75;;;1.40;;
31596;SDS011;18201;50.978;7.034;2023-04-24T01:25:31;2.17;;;1.50;;
31596;SDS011;18201;50.978;7.034;2023-04-24T01:26:02;1.45;;;1.33;;
31596;SDS011;18201;50.978;7.034;2023-04-24T01:26:34;2.55;;;1.48;;
31596;SDS011;18201;50.978;7.034;2023-04-24T01:27:05;2.72;;;1.55;;
31596;SDS011;18201;50.978;7.034;2023-04-24T01:27:37;3.40;;;1.42;;
31596;SDS011;18201;50.978;7.034;2023-04-24T01:28:08;2.88;;;1.55;;
31596;SDS011;18201;50.978;7.034;2023-04-24T01:28:40;1.80;;;1.25;;
31596;SDS011;18201;50.978;7.034;2023-04-24T01:29:11;3.33;;;1.65;;
31596;SDS011;18201;50.978;7.034;2023-04-24T01:29:42;1.80;;;1.70;;
31596;SDS011;18201;50.978;7.034;2023-04-24T01:30:14;3.35;;;1.65;;
31596;SDS011;18201;50.978;7.034;2023-04-24T01:30:45;5.95;;;1.73;;
31596;SDS011;18201;50.978;7.034;2023-04-24T01:31:16;3.15;;;1.70;;
31596;SDS011;18201;50.978;7.034;2023-04-24T01:31:48;2.65;;;1.45;;
31596;SDS011;18201;50.978;7.034;2023-04-24T01:32:19;4.18;;;1.70;;
31596;SDS011;18201;50.978;7.034;2023-04-24T01:32:50;1.45;;;1.35;;
31596;SDS011;18201;50.978;7.034;2023-04-24T01:33:22;1.73;;;1.63;;
31596;SDS011;18201;50.978;7.034;2023-04-24T01:33:53;1.30;;;1.20;;
31596;SDS011;18201;50.978;7.034;2023-04-24T01:34:26;2.42;;;1.40;;
31596;SDS011;18201;50.978;7.034;2023-04-24T01:34:58;1.58;;;1.48;;
31596;SDS011;18201;50.978;7.034;2023-04-24T01:35:29;4.22;;;1.23;;
31596;SDS011;18201;50.978;7.034;2023-04-24T01:36:00;1.48;;;1.35;;
31596;SDS011;18201;50.978;7.034;2023-04-24T01:36:31;3.63;;;1.52;;
31596;SDS011;18201;50.978;7.034;2023-04-24T01:37:05;1.98;;;1.48;;
31596;SDS011;18201;50.978;7.034;2023-04-24T01:37:37;1.63;;;1.52;;
31596;SDS011;18201;50.978;7.034;2023-04-24T01:38:08;2.97;;;1.80;;
31596;SDS011;18201;50.978;7.034;2023-04-24T01:38:40;3.65;;;1.77;;
31596;SDS011;18201;50.978;7.034;2023-04-24T01:39:11;2.50;;;1.73;;
31596;SDS011;18201;50.978;7.034;2023-04-24T01:39:42;1.50;;;1.40;;
31596;SDS011;18201;50.978;7.034;2023-04-24T01:40:13;2.03;;;1.40;;
31596;SDS011;18201;50.978;7.034;2023-04-24T01:40:45;3.72;;;1.67;;
31596;SDS011;18201;50.978;7.034;2023-04-24T01:41:16;2.97;;;2.10;;
31596;SDS011;18201;50.978;7.034;2023-04-24T01:41:47;1.92;;;1.52;;
31596;SDS011;18201;50.978;7.034;2023-04-24T01:42:20;2.92;;;2.25;;
31596;SDS011;18201;50.978;7.034;2023-04-24T01:42:52;3.10;;;2.20;;
31596;SDS011;18201;50.978;7.034;2023-04-24T01:43:23;5.05;;;2.67;;
31596;SDS011;18201;50.978;7.034;2023-04-24T01:43:55;4.15;;;2.72;;
31596;SDS011;18201;50.978;7.034;2023-04-24T01:44:28;4.90;;;2.40;;
31596;SDS011;18201;50.978;7.034;2023-04-24T01:44:59;3.28;;;2.88;;
31596;SDS011;18201;50.978;7.034;2023-04-24T01:45:31;3.30;;;3.00;;
31596;SDS011;18201;50.978;7.034;2023-04-24T01:46:02;3.88;;;2.78;;
31596;SDS011;18201;50.978;7.034;2023-04-24T01:46:33;3.53;;;3.20;;
31596;SDS011;18201;50.978;7.034;2023-04-24T01:47:05;3.78;;;3.47;;
31596;SDS011;18201;50.978;7.034;2023-04-24T01:47:37;4.07;;;3.55;;
31596;SDS011;18201;50.978;7.034;2023-04-24T01:48:08;4.20;;;3.80;;
31596;SDS011;18201;50.978;7.034;2023-04-24T01:48:40;6.88;;;3.50;;
31596;SDS011;18201;50.978;7.034;2023-04-24T01:49:12;4.20;;;3.50;;
31596;SDS011;18201;50.978;7.034;2023-04-24T01:49:43;3.72;;;3.10;;
31596;SDS011;18201;50.978;7.034;2023-04-24T01:50:16;4.97;;;4.47;;
31596;SDS011;18201;50.978;7.034;2023-04-24T01:50:48;5.63;;;3.63;;
31596;SDS011;18201;50.978;7.034;2023-04-24T01:51:19;3.65;;;3.35;;
31596;SDS011;18201;50.978;7.034;2023-04-24T01:51:50;3.53;;;3.25;;
31596;SDS011;18201;50.978;7.034;2023-04-24T01:52:21;4.50;;;4.10;;
31596;SDS011;18201;50.978;7.034;2023-04-24T01:52:54;3.95;;;3.47;;
31596;SDS011;18201;50.978;7.034;2023-04-24T01:53:26;3.70;;;3.40;;
31596;SDS011;18201;50.978;7.034;2023-04-24T01:53:57;4.32;;;3.80;;
31596;SDS011;18201;50.978;7.034;2023-04-24T01:54:28;3.90;;;3.53;;
31596;SDS011;18201;50.978;7.034;2023-04-24T01:55:00;5.45;;;3.50;;
31596;SDS011;18201;50.978;7.034;2023-04-24T01:55:31;4.88;;;3.72;;
31596;SDS011;18201;50.978;7.034;2023-04-24T01:56:02;4.50;;;3.22;;
31596;SDS011;18201;50.978;7.034;2023-04-24T01:56:34;4.60;;;3.30;;
31596;SDS011;18201;50.978;7.034;2023-04-24T01:57:06;3.85;;;3.40;;
31596;SDS011;18201;50.978;7.034;2023-04-24T01:57:38;8.43;;;3.92;;
31596;SDS011;18201;50.978;7.034;2023-04-24T01:58:11;4.50;;;3.83;;
31596;SDS011;18201;50.978;7.034;2023-04-24T01:58:42;5.38;;;4.10;;
31596;SDS011;18201;50.978;7.034;2023-04-24T01:59:13;4.80;;;4.05;;
31596;SDS011;18201;50.978;7.034;2023-04-24T01:59:48;6.60;;;3.92;;
31596;SDS011;18201;50.978;7.034;2023-04-24T02:00:19;4.18;;;3.88;;
31596;SDS011;18201;50.978;7.034;2023-04-24T02:00:49;4.47;;;4.10;;
31596;SDS011;18201;50.978;7.034;2023-04-24T02:01:22;4.05;;;3.65;;
31596;SDS011;18201;50.978;7.034;2023-04-24T02:01:54;5.93;;;4.47;;
31596;SDS011;18201;50.978;7.034;2023-04-24T02:02:25;5.35;;;4.30;;
31596;SDS011;18201;50.978;7.034;2023-04-24T02:02:58;4.22;;;3.83;;
31596;SDS011;18201;50.978;7.034;2023-04-24T02:03:31;5.22;;;4.75;;
31596;SDS011;18201;50.978;7.034;2023-04-24T02:04:02;5.25;;;4.00;;
31596;SDS011;18201;50.978;7.034;2023-04-24T02:04:35;4.70;;;4.30;;
31596;SDS011;18201;50.978;7.034;2023-04-24T02:05:06;4.97;;;4.00;;
31596;SDS011;18201;50.978;7.034;2023-04-24T02:05:37;5.70;;;4.20;;
31596;SDS011;18201;50.978;7.034;2023-04-24T02:06:09;4.95;;;4.55;;
31596;SDS011;18201;50.978;7.034;2023-04-24T02:06:40;7.30;;;5.07;;
31596;SDS011;18201;50.978;7.034;2023-04-24T02:07:11;5.18;;;4.60;;
31596;SDS011;18201;50.978;7.034;2023-04-24T02:07:43;4.35;;;3.95;;
31596;SDS011;18201;50.978;7.034;2023-04-24T02:08:15;5.45;;;4.28;;
31596;SDS011;18201;50.978;7.034;2023-04-24T02:08:46;4.53;;;4.10;;
31596;SDS011;18201;50.978;7.034;2023-04-24T02:09:18;6.15;;;4.75;;
31596;SDS011;18201;50.978;7.034;2023-04-24T02:09:48;4.72;;;4.32;;
31596;SDS011;18201;50.978;7.034;2023-04-24T02:10:19;5.53;;;4.90;;
31596;SDS011;18201;50.978;7.034;2023-04-24T02:10:52;4.82;;;4.38;;
31596;SDS011;18201;50.978;7.034;2023-04-24T02:11:22;5.03;;;4.50;;
31596;SDS011;18201;50.978;7.034;2023-04-24T02:11:53;5.20;;;4.70;;
31596;SDS011;18201;50.978;7.034;2023-04-24T02:12:26;5.93;;;4.60;;
31596;SDS011;18201;50.978;7.034;2023-04-24T02:12:57;8.90;;;6.13;;
31596;SDS011;18201;50.978;7.034;2023-04-24T02:13:29;5.10;;;4.63;;
31596;SDS011;18201;50.978;7.034;2023-04-24T02:14:01;5.60;;;4.90;;
31596;SDS011;18201;50.978;7.034;2023-04-24T02:14:32;5.90;;;5.30;;
31596;SDS011;18201;50.978;7.034;2023-04-24T02:15:03;7.20;;;4.90;;
31596;SDS011;18201;50.978;7.034;2023-04-24T02:15:36;5.95;;;4.72;;
31596;SDS011;18201;50.978;7.034;2023-04-24T02:16:07;7.18;;;5.22;;
31596;SDS011;18201;50.978;7.034;2023-04-24T02:16:38;5.25;;;4.72;;
31596;SDS011;18201;50.978;7.034;2023-04-24T02:17:10;6.90;;;4.82;;
31596;SDS011;18201;50.978;7.034;2023-04-24T02:17:42;6.05;;;5.28;;
31596;SDS011;18201;50.978;7.034;2023-04-24T02:18:13;5.63;;;5.05;;
31596;SDS011;18201;50.978;7.034;2023-04-24T02:18:45;6.68;;;5.82;;
31596;SDS011;18201;50.978;7.034;2023-04-24T02:19:16;6.95;;;4.47;;
31596;SDS011;18201;50.978;7.034;2023-04-24T02:19:47;5.93;;;5.40;;
31596;SDS011;18201;50.978;7.034;2023-04-24T02:20:19;6.80;;;4.90;;
31596;SDS011;18201;50.978;7.034;2023-04-24T02:20:50;5.53;;;5.03;;
31596;SDS011;18201;50.978;7.034;2023-04-24T02:21:21;6.22;;;5.50;;
31596;SDS011;18201;50.978;7.034;2023-04-24T02:21:52;8.68;;;5.03;;
31596;SDS011;18201;50.978;7.034;2023-04-24T02:22:23;8.63;;;5.78;;
31596;SDS011;18201;50.978;7.034;2023-04-24T02:22:54;6.93;;;6.15;;
31596;SDS011;18201;50.978;7.034;2023-04-24T02:23:27;6.13;;;5.47;;
31596;SDS011;18201;50.978;7.034;2023-04-24T02:23:58;6.40;;;5.80;;
31596;SDS011;18201;50.978;7.034;2023-04-24T02:24:29;6.45;;;5.85;;
31596;SDS011;18201;50.978;7.034;2023-04-24T02:25:01;7.88;;;5.72;;
31596;SDS011;18201;50.978;7.034;2023-04-24T02:25:33;6.15;;;5.63;;
31596;SDS011;18201;50.978;7.034;2023-04-24T02:26:04;7.57;;;5.07;;
31596;SDS011;18201;50.978;7.034;2023-04-24T02:26:35;8.98;;;5.95;;
31596;SDS011;18201;50.978;7.034;2023-04-24T02:27:07;6.95;;;6.00;;
31596;SDS011;18201;50.978;7.034;2023-04-24T02:27:38;7.00;;;5.25;;
31596;SDS011;18201;50.978;7.034;2023-04-24T02:28:08;6.60;;;5.88;;
31596;SDS011;18201;50.978;7.034;2023-04-24T02:28:39;7.22;;;5.72;;
31596;SDS011;18201;50.978;7.034;2023-04-24T02:29:11;5.70;;;5.20;;
31596;SDS011;18201;50.978;7.034;2023-04-24T02:29:42;6.78;;;5.82;;
31596;SDS011;18201;50.978;7.034;2023-04-24T02:30:14;8.98;;;5.70;;
31596;SDS011;18201;50.978;7.034;2023-04-24T02:30:45;7.32;;;5.85;;
31596;SDS011;18201;50.978;7.034;2023-04-24T02:31:16;6.35;;;5.65;;
31596;SDS011;18201;50.978;7.034;2023-04-24T02:31:48;6.93;;;5.45;;
31596;SDS011;18201;50.978;7.034;2023-04-24T02:32:19;7.63;;;5.88;;
31596;SDS011;18201;50.978;7.034;2023-04-24T02:32:49;7.93;;;5.90;;
31596;SDS011;18201;50.978;7.034;2023-04-24T02:33:21;8.35;;;5.95;;
31596;SDS011;18201;50.978;7.034;2023-04-24T02:33:52;6.97;;;6.30;;
31596;SDS011;18201;50.978;7.034;2023-04-24T02:34:23;7.30;;;5.90;;
31596;SDS011;18201;50.978;7.034;2023-04-24T02:34:55;6.32;;;5.50;;
31596;SDS011;18201;50.978;7.034;2023-04-24T02:35:26;9.77;;;6.13;;
31596;SDS011;18201;50.978;7.034;2023-04-24T02:35:57;6.55;;;5.57;;
31596;SDS011;18201;50.978;7.034;2023-04-24T02:36:28;10.05;;;6.57;;
31596;SDS011;18201;50.978;7.034;2023-04-24T02:37:00;8.15;;;6.00;;
31596;SDS011;18201;50.978;7.034;2023-04-24T02:37:31;7.15;;;5.75;;
31596;SDS011;18201;50.978;7.034;2023-04-24T02:38:03;9.90;;;6.00;;
31596;SDS011;18201;50.978;7.034;2023-04-24T02:38:35;8.18;;;6.40;;
31596;SDS011;18201;50.978;7.034;2023-04-24T02:39:06;8.77;;;5.82;;
31596;SDS011;18201;50.978;7.034;2023-04-24T02:39:38;9.95;;;6.63;;
31596;SDS011;18201;50.978;7.034;2023-04-24T02:40:09;6.95;;;6.25;;
31596;SDS011;18201;50.978;7.034;2023-04-24T02:40:40;8.68;;;6.63;;
31596;SDS011;18201;50.978;7.034;2023-04-24T02:41:11;7.85;;;5.93;;
31596;SDS011;18201;50.978;7.034;2023-04-24T02:41:42;6.70;;;6.10;;
31596;SDS011;18201;50.978;7.034;2023-04-24T02:42:13;6.47;;;5.85;;
31596;SDS011;18201;50.978;7.034;2023-04-24T02:42:45;8.00;;;6.43;;
31596;SDS011;18201;50.978;7.034;2023-04-24T02:43:16;7.65;;;5.90;;
31596;SDS011;18201;50.978;7.034;2023-04-24T02:43:47;7.45;;;5.68;;
31596;SDS011;18201;50.978;7.034;2023-04-24T02:44:18;7.20;;;6.32;;
31596;SDS011;18201;50.978;7.034;2023-04-24T02:44:50;8.13;;;6.20;;
31596;SDS011;18201;50.978;7.034;2023-04-24T02:45:21;9.93;;;6.55;;
31596;SDS011;18201;50.978;7.034;2023-04-24T02:45:52;8.77;;;5.90;;
31596;SDS011;18201;50.978;7.034;2023-04-24T02:46:24;7.65;;;5.88;;
31596;SDS011;18201;50.978;7.034;2023-04-24T02:46:55;6.30;;;5.57;;
31596;SDS011;18201;50.978;7.034;2023-04-24T02:47:26;6.57;;;5.97;;
31596;SDS011;18201;50.978;7.034;2023-04-24T02:47:57;8.57;;;5.97;;
31596;SDS011;18201;50.978;7.034;2023-04-24T02:48:28;8.63;;;6.38;;
31596;SDS011;18201;50.978;7.034;2023-04-24T02:48:59;7.25;;;6.20;;
31596;SDS011;18201;50.978;7.034;2023-04-24T02:49:31;6.47;;;5.88;;
31596;SDS011;18201;50.978;7.034;2023-04-24T02:50:02;8.23;;;6.53;;
31596;SDS011;18201;50.978;7.034;2023-04-24T02:50:34;10.43;;;6.70;;
31596;SDS011;18201;50.978;7.034;2023-04-24T02:51:06;9.85;;;7.05;;
31596;SDS011;18201;50.978;7.034;2023-04-24T02:51:37;6.47;;;5.78;;
31596;SDS011;18201;50.978;7.034;2023-04-24T02:52:11;10.90;;;6.80;;
31596;SDS011;18201;50.978;7.034;2023-04-24T02:52:43;7.05;;;6.18;;
31596;SDS011;18201;50.978;7.034;2023-04-24T02:53:14;8.35;;;6.70;;
31596;SDS011;18201;50.978;7.034;2023-04-24T02:53:46;10.23;;;7.68;;
31596;SDS011;18201;50.978;7.034;2023-04-24T02:54:18;9.35;;;6.05;;
31596;SDS011;18201;50.978;7.034;2023-04-24T02:54:48;9.15;;;7.28;;
31596;SDS011;18201;50.978;7.034;2023-04-24T02:55:19;8.98;;;7.18;;
31596;SDS011;18201;50.978;7.034;2023-04-24T02:55:51;8.60;;;7.65;;
31596;SDS011;18201;50.978;7.034;2023-04-24T02:56:22;9.38;;;7.00;;
31596;SDS011;18201;50.978;7.034;2023-04-24T02:56:53;9.05;;;6.90;;
31596;SDS011;18201;50.978;7.034;2023-04-24T02:57:25;11.40;;;6.70;;
31596;SDS011;18201;50.978;7.034;2023-04-24T02:57:56;8.48;;;7.05;;
31596;SDS011;18201;50.978;7.034;2023-04-24T02:58:26;8.55;;;6.43;;
31596;SDS011;18201;50.978;7.034;2023-04-24T02:58:58;9.15;;;6.55;;
31596;SDS011;18201;50.978;7.034;2023-04-24T02:59:29;10.00;;;6.65;;
31596;SDS011;18201;50.978;7.034;2023-04-24T03:00:00;7.65;;;6.68;;
31596;SDS011;18201;50.978;7.034;2023-04-24T03:00:31;9.30;;;6.53;;
31596;SDS011;18201;50.978;7.034;2023-04-24T03:01:03;6.63;;;6.00;;
31596;SDS011;18201;50.978;7.034;2023-04-24T03:01:34;7.65;;;6.85;;
31596;SDS011;18201;50.978;7.034;2023-04-24T03:02:05;9.90;;;7.40;;
31596;SDS011;18201;50.978;7.034;2023-04-24T03:02:37;9.60;;;6.97;;
31596;SDS011;18201;50.978;7.034;2023-04-24T03:03:08;9.52;;;6.53;;
31596;SDS011;18201;50.978;7.034;2023-04-24T03:03:39;10.32;;;6.78;;
31596;SDS011;18201;50.978;7.034;2023-04-24T03:04:10;8.40;;;6.95;;
31596;SDS011;18201;50.978;7.034;2023-04-24T03:04:41;9.73;;;7.18;;
31596;SDS011;18201;50.978;7.034;2023-04-24T03:05:15;9.65;;;6.70;;
31596;SDS011;18201;50.978;7.034;2023-04-24T03:05:46;8.90;;;6.70;;
31596;SDS011;18201;50.978;7.034;2023-04-24T03:06:18;10.15;;;7.38;;
31596;SDS011;18201;50.978;7.034;2023-04-24T03:06:52;10.90;;;6.97;;
31596;SDS011;18201;50.978;7.034;2023-04-24T03:07:24;7.72;;;6.90;;
31596;SDS011;18201;50.978;7.034;2023-04-24T03:07:56;7.97;;;6.55;;
31596;SDS011;18201;50.978;7.034;2023-04-24T03:08:27;9.38;;;6.90;;
31596;SDS011;18201;50.978;7.034;2023-04-24T03:09:00;11.07;;;7.82;;
31596;SDS011;18201;50.978;7.034;2023-04-24T03:09:32;9.82;;;6.82;;
31596;SDS011;18201;50.978;7.034;2023-04-24T03:10:03;11.73;;;7.45;;
31596;SDS011;18201;50.978;7.034;2023-04-24T03:10:35;7.90;;;7.10;;
31596;SDS011;18201;50.978;7.034;2023-04-24T03:11:07;10.90;;;7.07;;
31596;SDS011;18201;50.978;7.034;2023-04-24T03:11:38;11.00;;;7.82;;